createdAt,value
2019-01-26T00:00:51.841Z,2.66
2019-01-26T00:03:23.291Z,2.76
2019-01-26T00:05:54.588Z,2.74
2019-01-26T00:08:24.743Z,2.82
2019-01-26T00:10:57.633Z,2.93
2019-01-26T00:13:27.926Z,2.96
2019-01-26T00:15:58.355Z,2.97
2019-01-26T00:18:32.603Z,3.04
2019-01-26T00:21:02.969Z,3.12
2019-01-26T00:23:36.226Z,2.71
2019-01-26T00:26:06.694Z,3.29
2019-01-26T00:28:36.561Z,3.34
2019-01-26T00:31:06.795Z,3.38
2019-01-26T00:33:36.761Z,3.39
2019-01-26T00:36:06.982Z,3.38
2019-01-26T00:38:37.415Z,3.37
2019-01-26T00:41:07.517Z,3.35
2019-01-26T00:43:37.355Z,3.45
2019-01-26T00:46:07.654Z,3.35
2019-01-26T00:48:42.668Z,3.32
2019-01-26T00:51:17.105Z,3.35
2019-01-26T00:53:45.030Z,3.48
2019-01-26T00:56:16.612Z,3.51
2019-01-26T00:58:47.029Z,3.58
2019-01-26T01:01:17.010Z,3.49
2019-01-26T01:03:47.066Z,3.45
2019-01-26T01:06:17.395Z,3.49
2019-01-26T01:08:47.368Z,3.52
2019-01-26T01:11:17.422Z,3.53
2019-01-26T01:13:47.948Z,3.56
2019-01-26T01:16:19.005Z,3.42
2019-01-26T01:18:49.002Z,3.34
2019-01-26T01:21:22.281Z,3.29
2019-01-26T01:23:53.497Z,3.36
2019-01-26T01:26:25.166Z,3.37
2019-01-26T01:28:55.242Z,3.37
2019-01-26T01:31:25.258Z,3.36
2019-01-26T01:33:56.565Z,3.32
2019-01-26T01:36:26.968Z,3.22
2019-01-26T01:38:58.748Z,3.28
2019-01-26T01:41:30.428Z,3.36
2019-01-26T01:44:00.231Z,3.23
2019-01-26T01:46:31.138Z,3.14
2019-01-26T01:49:07.305Z,3.13
2019-01-26T01:51:37.660Z,3.11
2019-01-26T01:54:07.737Z,3.03
2019-01-26T01:56:39.742Z,2.95
2019-01-26T01:59:10.184Z,3.02
2019-01-26T02:01:40.505Z,2.99
2019-01-26T02:04:10.459Z,2.90
2019-01-26T02:06:40.748Z,2.76
2019-01-26T02:09:13.684Z,2.58
2019-01-26T02:11:43.606Z,2.62
2019-01-26T02:14:13.868Z,2.65
2019-01-26T02:16:50.075Z,2.65
2019-01-26T02:19:16.957Z,2.68
2019-01-26T02:21:46.983Z,2.80
2019-01-26T02:24:17.838Z,2.60
2019-01-26T02:26:48.305Z,2.60
2019-01-26T02:29:18.138Z,2.59
2019-01-26T02:31:49.125Z,2.57
2019-01-26T02:34:20.142Z,2.63
2019-01-26T02:36:49.965Z,2.66
2019-01-26T02:39:19.795Z,2.58
2019-01-26T02:41:49.648Z,2.50
2019-01-26T02:44:21.036Z,2.57
2019-01-26T02:46:58.136Z,2.69
2019-01-26T02:49:26.477Z,2.76
2019-01-26T02:51:56.546Z,2.82
2019-01-26T02:54:26.799Z,2.87
2019-01-26T02:56:59.393Z,2.88
2019-01-26T02:59:31.048Z,2.84
2019-01-26T03:02:01.061Z,2.80
2019-01-26T03:04:30.987Z,2.84
2019-01-26T03:07:02.004Z,2.97
2019-01-26T03:09:33.308Z,3.06
2019-01-26T03:12:03.368Z,2.99
2019-01-26T03:14:33.561Z,2.97
2019-01-26T03:17:06.314Z,3.05
2019-01-26T03:19:36.365Z,3.09
2019-01-26T03:22:06.652Z,3.16
2019-01-26T03:24:36.527Z,3.11
2019-01-26T03:27:06.762Z,3.08
2019-01-26T03:29:36.587Z,3.12
2019-01-26T03:32:09.543Z,3.09
2019-01-26T03:34:39.596Z,3.13
2019-01-26T03:37:11.043Z,3.13
2019-01-26T03:39:41.183Z,3.21
2019-01-26T03:42:11.256Z,3.22
2019-01-26T03:44:41.742Z,3.17
2019-01-26T03:47:13.835Z,3.13
2019-01-26T03:49:43.604Z,3.21
2019-01-26T03:52:15.713Z,3.33
2019-01-26T03:54:45.821Z,3.33
2019-01-26T03:57:16.175Z,3.29
2019-01-26T03:59:48.158Z,3.38
2019-01-26T04:02:20.300Z,3.43
2019-01-26T04:04:52.688Z,3.46
2019-01-26T04:07:24.270Z,3.40
2019-01-26T04:09:54.182Z,3.33
2019-01-26T04:12:25.254Z,3.34
2019-01-26T04:14:55.605Z,3.44
2019-01-26T04:17:25.687Z,3.43
2019-01-26T04:19:59.413Z,3.42
2019-01-26T04:22:29.677Z,3.49
2019-01-26T04:24:59.561Z,3.39
2019-01-26T04:27:32.305Z,3.49
2019-01-26T04:30:02.303Z,3.59
2019-01-26T04:32:32.546Z,3.57
2019-01-26T04:35:02.321Z,3.57
2019-01-26T04:37:32.582Z,3.63
2019-01-26T04:40:04.956Z,3.67
2019-01-26T04:42:36.081Z,3.68
2019-01-26T04:45:08.547Z,3.64
2019-01-26T04:47:38.480Z,3.37
2019-01-26T04:50:10.068Z,3.70
2019-01-26T04:52:40.406Z,3.77
2019-01-26T04:55:12.339Z,3.84
2019-01-26T04:57:42.269Z,3.91
2019-01-26T05:00:21.406Z,3.90
2019-01-26T05:02:54.594Z,3.94
2019-01-26T05:05:24.433Z,3.98
2019-01-26T05:07:55.792Z,3.96
2019-01-26T05:10:28.693Z,3.97
2019-01-26T05:12:59.959Z,3.98
2019-01-26T05:15:30.190Z,4.05
2019-01-26T05:18:01.841Z,4.05
2019-01-26T05:20:34.772Z,4.02
2019-01-26T05:23:05.986Z,4.03
2019-01-26T05:25:35.981Z,3.93
2019-01-26T05:28:07.441Z,3.89
2019-01-26T05:30:37.373Z,3.92
2019-01-26T05:33:07.617Z,3.97
2019-01-26T05:35:37.436Z,4.06
2019-01-26T05:38:07.364Z,4.08
2019-01-26T05:40:37.169Z,4.03
2019-01-26T05:43:09.831Z,3.99
2019-01-26T05:45:40.450Z,4.05
2019-01-26T05:48:13.016Z,4.13
2019-01-26T05:50:42.847Z,4.07
2019-01-26T05:53:13.799Z,4.10
2019-01-26T05:55:43.648Z,4.15
2019-01-26T05:58:13.633Z,4.13
2019-01-26T06:00:44.234Z,4.10
2019-01-26T06:03:14.119Z,4.04
2019-01-26T06:05:44.121Z,4.07
2019-01-26T06:08:14.998Z,4.17
2019-01-26T06:10:44.951Z,3.92
2019-01-26T06:13:14.900Z,3.64
2019-01-26T06:15:45.049Z,3.97
2019-01-26T06:18:15.026Z,4.06
2019-01-26T06:20:45.251Z,4.08
2019-01-26T06:23:18.397Z,4.10
2019-01-26T06:25:48.242Z,4.15
2019-01-26T06:28:19.400Z,4.14
2019-01-26T06:30:49.351Z,4.15
2019-01-26T06:33:23.433Z,4.18
2019-01-26T06:35:55.471Z,4.16
2019-01-26T06:38:25.380Z,4.23
2019-01-26T06:40:55.520Z,4.11
2019-01-26T06:43:29.870Z,4.06
2019-01-26T06:46:01.331Z,4.14
2019-01-26T06:48:31.667Z,3.55
2019-01-26T06:51:02.088Z,4.09
2019-01-26T06:53:32.025Z,4.12
2019-01-26T06:56:03.897Z,4.09
2019-01-26T06:58:38.100Z,4.10
2019-01-26T07:01:08.156Z,4.11
2019-01-26T07:03:38.929Z,4.01
2019-01-26T07:06:16.111Z,3.96
2019-01-26T07:08:46.614Z,3.99
2019-01-26T07:11:19.434Z,3.99
2019-01-26T07:13:49.424Z,4.10
2019-01-26T07:16:23.685Z,4.19
2019-01-26T07:18:58.210Z,4.26
2019-01-26T07:21:29.891Z,4.17
2019-01-26T07:24:00.279Z,3.97
2019-01-26T07:26:31.971Z,4.10
2019-01-26T07:29:09.302Z,4.20
2019-01-26T07:31:44.158Z,4.26
2019-01-26T07:34:18.949Z,4.19
2019-01-26T07:36:49.524Z,4.29
2019-01-26T07:39:25.619Z,4.35
2019-01-26T07:41:59.281Z,4.34
2019-01-26T07:44:33.372Z,4.25
2019-01-26T07:47:07.238Z,4.32
2019-01-26T07:49:37.401Z,4.27
2019-01-26T07:52:09.174Z,3.80
2019-01-26T07:54:39.622Z,4.39
2019-01-26T07:57:15.896Z,4.46
2019-01-26T07:59:49.195Z,4.52
2019-01-26T08:02:24.230Z,4.56
2019-01-26T08:05:01.418Z,4.57
2019-01-26T08:07:32.005Z,4.71
2019-01-26T08:10:06.241Z,4.81
2019-01-26T08:12:37.605Z,4.94
2019-01-26T08:15:15.857Z,5.02
2019-01-26T08:17:47.809Z,5.13
2019-01-26T08:20:23.553Z,5.20
2019-01-26T08:22:56.141Z,5.22
2019-01-26T08:25:27.784Z,5.14
2019-01-26T08:27:58.153Z,5.14
2019-01-26T08:30:29.566Z,5.16
2019-01-26T08:33:05.278Z,5.24
2019-01-26T08:35:37.055Z,5.33
2019-01-26T08:38:17.485Z,5.33
2019-01-26T08:40:52.071Z,5.34
2019-01-26T08:43:23.600Z,5.37
2019-01-26T08:45:58.355Z,5.25
2019-01-26T08:48:31.345Z,5.19
2019-01-26T08:51:06.487Z,5.29
2019-01-26T08:53:39.009Z,5.15
2019-01-26T08:56:09.435Z,5.24
2019-01-26T08:58:42.536Z,5.30
2019-01-26T09:01:13.794Z,5.43
2019-01-26T09:04:05.728Z,5.29
2019-01-26T09:06:48.490Z,5.40
2019-01-26T09:09:31.541Z,5.21
2019-01-26T09:12:05.299Z,5.26
2019-01-26T09:14:37.348Z,4.82
2019-01-26T09:17:10.054Z,5.02
2019-01-26T09:19:42.379Z,5.48
2019-01-26T09:22:12.904Z,5.49
2019-01-26T09:24:47.105Z,5.55
2019-01-26T09:27:27.393Z,5.67
2019-01-26T09:30:00.328Z,5.74
2019-01-26T09:32:36.756Z,5.91
2019-01-26T09:35:08.783Z,6.02
2019-01-26T09:37:39.563Z,6.14
2019-01-26T09:40:17.061Z,6.19
2019-01-26T09:42:52.079Z,6.38
2019-01-26T09:45:27.745Z,6.36
2019-01-26T09:47:59.256Z,6.29
2019-01-26T09:50:33.986Z,6.21
2019-01-26T09:53:15.739Z,6.21
2019-01-26T09:55:52.531Z,6.19
2019-01-26T09:58:49.730Z,6.43
2019-01-26T10:01:26.623Z,6.34
2019-01-26T10:04:00.416Z,6.49
2019-01-26T10:06:35.610Z,6.49
2019-01-26T10:09:10.637Z,6.58
2019-01-26T10:11:41.477Z,6.64
2019-01-26T10:14:13.678Z,6.71
2019-01-26T10:16:48.955Z,6.71
2019-01-26T10:19:20.603Z,6.69
2019-01-26T10:21:54.080Z,6.60
2019-01-26T10:24:28.456Z,6.63
2019-01-26T10:27:01.943Z,6.72
2019-01-26T10:29:32.732Z,6.72
2019-01-26T10:32:03.072Z,6.66
2019-01-26T10:34:33.375Z,6.66
2019-01-26T10:37:24.516Z,6.68
2019-01-26T10:39:56.218Z,6.85
2019-01-26T10:42:29.078Z,6.85
2019-01-26T10:45:04.744Z,6.94
2019-01-26T10:47:36.463Z,7.02
2019-01-26T10:50:10.959Z,7.14
2019-01-26T10:52:41.074Z,7.17
2019-01-26T10:55:17.159Z,7.13
2019-01-26T10:57:47.568Z,7.16
2019-01-26T11:00:19.277Z,7.16
2019-01-26T11:02:49.494Z,7.21
2019-01-26T11:05:20.870Z,7.16
2019-01-26T11:07:54.056Z,6.88
2019-01-26T11:10:27.226Z,7.31
2019-01-26T11:12:59.018Z,7.43
2019-01-26T11:15:34.741Z,7.43
2019-01-26T11:18:14.975Z,7.32
2019-01-26T11:20:46.224Z,7.32
2019-01-26T11:23:17.777Z,7.19
2019-01-26T11:25:52.982Z,7.32
2019-01-26T11:28:27.504Z,7.32
2019-01-26T11:30:59.303Z,7.36
2019-01-26T11:33:29.287Z,7.36
2019-01-26T11:36:03.716Z,7.44
2019-01-26T11:38:34.590Z,7.49
2019-01-26T11:41:08.090Z,7.51
2019-01-26T11:43:40.774Z,7.23
2019-01-26T11:46:34.906Z,7.31
2019-01-26T11:49:14.905Z,7.31
2019-01-26T11:52:20.162Z,7.36
2019-01-26T11:55:14.204Z,7.34
2019-01-26T11:57:47.305Z,7.50
2019-01-26T12:00:42.692Z,7.45
2019-01-26T12:03:28.574Z,7.45
2019-01-26T12:06:34.754Z,7.31
2019-01-26T12:09:09.439Z,7.36
2019-01-26T12:11:39.878Z,7.42
2019-01-26T12:14:11.995Z,7.50
2019-01-26T12:16:42.701Z,7.39
2019-01-26T12:19:14.460Z,7.36
2019-01-26T12:21:45.147Z,7.23
2019-01-26T12:24:15.917Z,7.23
2019-01-26T12:26:48.384Z,7.23
2019-01-26T12:29:20.808Z,7.21
2019-01-26T12:31:52.448Z,7.27
2019-01-26T12:34:24.060Z,7.22
2019-01-26T12:36:54.519Z,7.26
2019-01-26T12:39:28.014Z,7.26
2019-01-26T12:41:58.962Z,7.31
2019-01-26T12:44:29.965Z,7.36
2019-01-26T12:47:00.248Z,7.36
2019-01-26T12:49:30.923Z,7.56
2019-01-26T12:52:12.675Z,7.57
2019-01-26T12:54:44.903Z,7.64
2019-01-26T12:57:17.173Z,7.62
2019-01-26T12:59:48.314Z,7.59
2019-01-26T13:02:20.264Z,7.55
2019-01-26T13:04:54.824Z,7.50
2019-01-26T13:07:29.722Z,7.38
2019-01-26T13:10:05.576Z,7.38
2019-01-26T13:12:36.331Z,7.38
2019-01-26T13:15:15.202Z,7.22
2019-01-26T13:17:40.679Z,7.33
2019-01-26T13:20:16.505Z,7.33
2019-01-26T13:22:47.909Z,7.37
2019-01-26T13:25:18.569Z,7.34
2019-01-26T13:27:48.915Z,7.48
2019-01-26T13:30:22.680Z,7.38
2019-01-26T13:32:57.417Z,6.83
2019-01-26T13:35:31.293Z,7.31
2019-01-26T13:38:02.532Z,7.44
2019-01-26T13:40:34.737Z,7.38
2019-01-26T13:43:05.318Z,7.38
2019-01-26T13:45:35.658Z,7.37
2019-01-26T13:48:05.989Z,7.41
2019-01-26T13:50:38.250Z,7.42
2019-01-26T13:53:10.638Z,7.39
2019-01-26T13:55:40.664Z,7.65
2019-01-26T13:58:14.138Z,7.65
2019-01-26T14:00:44.526Z,7.70
2019-01-26T14:03:14.875Z,7.60
2019-01-26T14:05:45.899Z,7.60
2019-01-26T14:08:16.218Z,7.56
2019-01-26T14:10:47.081Z,7.60
2019-01-26T14:13:17.105Z,7.66
2019-01-26T14:15:48.705Z,7.65
2019-01-26T14:18:20.117Z,7.67
2019-01-26T14:20:51.885Z,7.61
2019-01-26T14:23:23.526Z,7.54
2019-01-26T14:25:56.884Z,7.53
2019-01-26T14:28:28.568Z,7.55
2019-01-26T14:31:01.370Z,7.52
2019-01-26T14:33:31.436Z,7.52
2019-01-26T14:36:02.979Z,7.62
2019-01-26T14:38:33.113Z,7.65
2019-01-26T14:41:03.318Z,7.65
2019-01-26T14:43:35.410Z,7.65
2019-01-26T14:46:06.513Z,7.86
2019-01-26T14:48:36.936Z,8.03
2019-01-26T14:51:08.573Z,8.09
2019-01-26T14:53:38.796Z,8.12
2019-01-26T14:56:09.125Z,8.17
2019-01-26T14:58:40.759Z,8.22
2019-01-26T15:01:10.864Z,8.29
2019-01-26T15:03:42.430Z,8.30
2019-01-26T15:06:13.132Z,8.24
2019-01-26T15:08:43.231Z,8.23
2019-01-26T15:11:14.433Z,8.14
2019-01-26T15:13:44.408Z,8.10
2019-01-26T15:16:15.044Z,8.09
2019-01-26T15:18:45.582Z,8.02
2019-01-26T15:21:15.640Z,7.93
2019-01-26T15:23:45.719Z,7.78
2019-01-26T15:26:16.008Z,7.77
2019-01-26T15:28:47.969Z,7.62
2019-01-26T15:31:18.948Z,7.55
2019-01-26T15:33:49.558Z,7.51
2019-01-26T15:36:20.021Z,7.41
2019-01-26T15:38:50.472Z,7.39
2019-01-26T15:41:24.682Z,7.51
2019-01-26T15:43:55.065Z,7.54
2019-01-26T15:46:25.711Z,7.37
2019-01-26T15:48:58.435Z,7.31
2019-01-26T15:51:28.796Z,7.20
2019-01-26T15:53:58.885Z,7.09
2019-01-26T15:56:30.940Z,7.01
2019-01-26T15:59:01.283Z,7.03
2019-01-26T16:01:34.828Z,6.64
2019-01-26T16:04:04.871Z,7.05
2019-01-26T16:06:35.099Z,7.14
2019-01-26T16:09:07.598Z,7.14
2019-01-26T16:11:37.736Z,7.11
2019-01-26T16:14:07.928Z,7.11
2019-01-26T16:16:37.933Z,7.26
2019-01-26T16:19:08.571Z,7.16
2019-01-26T16:21:38.561Z,7.23
2019-01-26T16:24:08.595Z,7.23
2019-01-26T16:26:39.770Z,6.88
2019-01-26T16:29:11.818Z,7.22
2019-01-26T16:31:43.866Z,7.21
2019-01-26T16:34:16.976Z,7.10
2019-01-26T16:36:47.329Z,7.10
2019-01-26T16:39:21.373Z,7.22
2019-01-26T16:41:51.616Z,7.25
2019-01-26T16:44:25.147Z,7.33
2019-01-26T16:46:57.128Z,7.13
2019-01-26T16:49:27.824Z,7.20
2019-01-26T16:52:01.354Z,7.20
2019-01-26T16:54:34.217Z,7.21
2019-01-26T16:57:04.721Z,7.25
2019-01-26T16:59:35.305Z,7.17
2019-01-26T17:02:08.351Z,7.17
2019-01-26T17:04:38.201Z,7.16
2019-01-26T17:07:11.872Z,7.10
2019-01-26T17:09:42.021Z,7.12
2019-01-26T17:12:12.054Z,7.08
2019-01-26T17:14:43.400Z,7.20
2019-01-26T17:17:16.379Z,7.20
2019-01-26T17:19:47.603Z,7.20
2019-01-26T17:22:19.191Z,7.31
2019-01-26T17:24:49.796Z,7.31
2019-01-26T17:27:23.589Z,7.35
2019-01-26T17:29:57.590Z,7.30
2019-01-26T17:32:27.893Z,7.33
2019-01-26T17:35:00.191Z,7.33
2019-01-26T17:37:30.557Z,7.30
2019-01-26T17:40:01.837Z,7.30
2019-01-26T17:42:32.870Z,7.22
2019-01-26T17:45:05.701Z,7.21
2019-01-26T17:47:36.960Z,7.20
2019-01-26T17:50:11.029Z,7.14
2019-01-26T17:52:41.674Z,7.14
2019-01-26T17:55:12.611Z,7.05
2019-01-26T17:57:42.929Z,7.05
2019-01-26T18:00:18.976Z,6.97
2019-01-26T18:02:50.056Z,7.09
2019-01-26T18:05:22.490Z,7.09
2019-01-26T18:07:54.648Z,7.18
2019-01-26T18:10:30.171Z,7.22
2019-01-26T18:13:00.437Z,7.22
2019-01-26T18:15:34.066Z,6.92
2019-01-26T18:18:06.088Z,7.41
2019-01-26T18:20:36.742Z,7.30
2019-01-26T18:23:07.521Z,7.32
2019-01-26T18:25:39.720Z,7.32
2019-01-26T18:28:16.470Z,7.30
2019-01-26T18:30:49.427Z,7.41
2019-01-26T18:33:25.601Z,7.37
2019-01-26T18:35:59.818Z,7.37
2019-01-26T18:38:35.064Z,7.52
2019-01-26T18:41:08.245Z,7.52
2019-01-26T18:43:39.226Z,7.43
2019-01-26T18:46:12.206Z,7.41
2019-01-26T18:48:43.681Z,7.50
2019-01-26T18:51:20.642Z,7.57
2019-01-26T18:53:51.444Z,7.56
2019-01-26T18:56:28.059Z,7.63
2019-01-26T18:58:58.693Z,7.63
2019-01-26T19:01:36.884Z,7.62
2019-01-26T19:04:44.527Z,7.62
2019-01-26T19:07:18.529Z,6.92
2019-01-26T19:09:48.562Z,7.58
2019-01-26T19:12:19.998Z,7.52
2019-01-26T19:14:50.290Z,7.52
2019-01-26T19:17:24.553Z,7.53
2019-01-26T19:19:59.439Z,7.53
2019-01-26T19:22:30.607Z,7.51
2019-01-26T19:25:04.566Z,7.51
2019-01-26T19:27:37.538Z,7.48
2019-01-26T19:30:12.092Z,7.48
2019-01-26T19:32:44.607Z,7.30
2019-01-26T19:35:18.871Z,7.27
2019-01-26T19:37:50.230Z,7.24
2019-01-26T19:40:22.998Z,7.10
2019-01-26T19:42:57.501Z,7.10
2019-01-26T19:45:29.075Z,7.02
2019-01-26T19:48:03.062Z,6.97
2019-01-26T19:50:35.769Z,6.91
2019-01-26T19:53:06.684Z,6.91
2019-01-26T19:55:38.980Z,6.81
2019-01-26T19:58:13.285Z,6.59
2019-01-26T20:00:43.330Z,6.59
2019-01-26T20:03:15.286Z,6.65
2019-01-26T20:05:48.355Z,6.64
2019-01-26T20:08:21.639Z,6.59
2019-01-26T20:10:56.060Z,6.60
2019-01-26T20:13:36.829Z,6.45
2019-01-26T20:16:11.749Z,6.56
2019-01-26T20:18:43.009Z,6.56
2019-01-26T20:21:18.258Z,6.60
2019-01-26T20:23:58.425Z,6.61
2019-01-26T20:26:33.130Z,6.61
2019-01-26T20:29:09.729Z,6.61
2019-01-26T20:31:48.106Z,6.66
2019-01-26T20:34:21.832Z,6.73
2019-01-26T20:37:00.402Z,6.80
2019-01-26T20:39:34.203Z,6.83
2019-01-26T20:42:05.179Z,6.80
2019-01-26T20:44:37.646Z,6.81
2019-01-26T20:47:17.933Z,6.90
2019-01-26T20:49:48.823Z,6.87
2019-01-26T20:52:28.233Z,6.86
2019-01-26T20:55:04.281Z,6.86
2019-01-26T20:57:34.703Z,6.80
2019-01-26T21:00:14.062Z,6.80
2019-01-26T21:02:44.393Z,6.76
2019-01-26T21:05:16.364Z,6.61
2019-01-26T21:08:08.255Z,6.62
2019-01-26T21:10:43.905Z,6.62
2019-01-26T21:13:16.909Z,6.60
2019-01-26T21:15:51.467Z,6.63
2019-01-26T21:18:26.809Z,6.16
2019-01-26T21:20:57.691Z,6.56
2019-01-26T21:23:31.564Z,6.51
2019-01-26T21:26:02.084Z,6.46
2019-01-26T21:28:38.147Z,6.44
2019-01-26T21:31:13.523Z,6.34
2019-01-26T21:33:44.777Z,6.31
2019-01-26T21:36:17.853Z,6.19
2019-01-26T21:38:51.211Z,6.24
2019-01-26T21:41:26.425Z,6.29
2019-01-26T21:44:08.577Z,6.33
2019-01-26T21:46:51.223Z,6.33
2019-01-26T21:49:23.902Z,6.30
2019-01-26T21:51:55.329Z,6.31
2019-01-26T21:54:27.431Z,6.30
2019-01-26T21:57:02.318Z,6.33
2019-01-26T21:59:34.333Z,6.36
2019-01-26T22:02:05.483Z,6.39
2019-01-26T22:04:46.908Z,6.42
2019-01-26T22:07:20.191Z,6.46
2019-01-26T22:09:52.722Z,6.44
2019-01-26T22:12:23.751Z,6.43
2019-01-26T22:14:54.323Z,6.45
2019-01-26T22:17:27.586Z,6.46
2019-01-26T22:20:03.529Z,6.44
2019-01-26T22:22:38.433Z,6.46
2019-01-26T22:25:11.915Z,6.47
2019-01-26T22:27:42.278Z,6.50
2019-01-26T22:30:18.830Z,6.47
2019-01-26T22:32:49.384Z,6.53
2019-01-26T22:35:24.578Z,6.58
2019-01-26T22:37:56.125Z,6.55
2019-01-26T22:40:30.604Z,6.45
2019-01-26T22:43:02.695Z,6.49
2019-01-26T22:45:41.144Z,6.50
2019-01-26T22:48:13.616Z,6.56
2019-01-26T22:50:46.908Z,6.60
2019-01-26T22:53:17.326Z,6.70
2019-01-26T22:55:48.968Z,6.76
2019-01-26T22:58:20.287Z,6.76
2019-01-26T23:01:15.764Z,6.29
2019-01-26T23:04:28.061Z,6.81
2019-01-26T23:07:53.770Z,6.86
2019-01-26T23:11:00.707Z,6.92
2019-01-26T23:13:54.442Z,6.92
2019-01-26T23:17:08.077Z,6.83
2019-01-26T23:20:06.324Z,6.91
2019-01-26T23:22:58.730Z,6.84
2019-01-26T23:26:17.240Z,6.84
2019-01-26T23:29:21.711Z,6.86
2019-01-26T23:31:53.832Z,6.92
2019-01-26T23:34:25.220Z,7.03
2019-01-26T23:36:56.721Z,7.04
2019-01-26T23:39:29.619Z,7.04
2019-01-26T23:42:01.051Z,7.00
2019-01-26T23:44:32.520Z,7.00
2019-01-26T23:47:03.681Z,6.96
2019-01-26T23:49:33.544Z,6.93
2019-01-26T23:52:03.535Z,6.96
2019-01-26T23:54:35.513Z,6.92
2019-01-26T23:57:07.137Z,6.92
2019-01-26T23:59:37.290Z,6.89
